Petrified Forest National Park, AZ

6:45 AM MST on April 27, 2015 (GMT -0700)
Torreon | | Change Station
CLOSE
Current Station
Personal Weather Station
Location: Show Low, AZ
Elevation: 6391 ft
Nearby Weather Stations

Elev 6391 ft 34.25 °N, 110.09 °W | Updated 25 seconds ago

Mostly Cloudy
Mostly Cloudy
38.7 °F
Feels Like 34 °F
N
6.0
Wind Variable Wind from NNE
Gusts 8.0 mph

Today
High -- | Low -- °F
--% Chance of Precip.
Yesterday
High -- | Low -- °F
Precip. -- in
5:35 AM 7:01 PM
Waxing Gibbous, 65% visible
Pressure 30.04 in
Visibility 10.0 miles
Clouds Overcast 3400 ft
Windchill 34 °F
Dew Point 32 °F
Humidity 77%
Rainfall 0.00 in
Snow Depth Not available.
UV 0 out of 12
Pollen 2.50 out of 12
Air Quality Not available.
Flu Activity Local Activity
METAR KSOW 271335Z AUTO 33006KT 10SM OVC034 02/M02 A3004 RMK AO2

More Conditions Fewer Conditions

Pressure 30.04 in
Visibility 10.0 miles
Clouds Overcast 3400 ft
Windchill 34 °F
Dew Point 32 °F
Humidity 77%
Rainfall 0.00 in
Snow Depth Not available.
UV 0 out of 12
Pollen 2.50 out of 12
Air Quality Not available.
Flu Activity Local Activity
METAR KSOW 271335Z AUTO 33006KT 10SM OVC034 02/M02 A3004 RMK AO2

More Conditions Fewer Conditions

10-Day Weather Forecast

Almanac

Astronomy

Apr. 27, 2015 Rise Set
Actual Time
Civil Twilight
Nautical Twilight
Astronomical Twilight
Moon
Length of Visible Light
Length of Day
Tomorrow will be .
, % of the Moon is Illuminated

Today's Extremes

State Highs State Lows

Community

WunderPhotos

Upload Photos

1,817,309 photos uploaded!

WunderBlogs® & News

Nearby

Air Quality

  Air Quality AQ Index Pollutant
Not available.

Snow Depth

Station Depth Elevation

Earthquake Activity

City Distance Mag. Time & Date
Minimum magnitude displayed is 2.5.

Coastal Water Temperatures

Place Temperature

Stations

Nearby Weather Stations

Station Location Temp. Windchill Dew Point Humidity Wind Precip. Elev Updated Type